createdAt,value
2023-04-12T00:01:05.835Z,7.20
2023-04-12T00:03:35.101Z,7.20
2023-04-12T00:06:07.370Z,7.20
2023-04-12T00:08:36.015Z,7.20
2023-04-12T00:11:03.985Z,7.20
2023-04-12T00:13:31.623Z,7.20
2023-04-12T00:15:59.051Z,7.30
2023-04-12T00:18:26.348Z,7.30
2023-04-12T00:20:55.726Z,7.30
2023-04-12T00:23:22.882Z,7.30
2023-04-12T00:25:50.006Z,7.30
2023-04-12T00:28:17.268Z,7.20
2023-04-12T00:30:45.948Z,7.20
2023-04-12T00:33:14.513Z,7.50
2023-04-12T00:35:41.663Z,7.50
2023-04-12T00:38:10.827Z,7.40
2023-04-12T00:40:42.689Z,7.50
2023-04-12T00:43:18.764Z,7.40
2023-04-12T00:45:47.846Z,7.40
2023-04-12T00:48:16.313Z,7.50
2023-04-12T00:50:44.921Z,7.50
2023-04-12T00:53:14.660Z,7.50
2023-04-12T00:55:46.235Z,7.50
2023-04-12T00:58:15.040Z,7.50
2023-04-12T01:00:50.372Z,7.40
2023-04-12T01:03:27.663Z,7.30
2023-04-12T01:06:36.208Z,7.30
2023-04-12T01:09:06.252Z,7.20
2023-04-12T01:11:44.411Z,7.20
2023-04-12T01:14:37.409Z,7.20
2023-04-12T01:17:07.460Z,7.40
2023-04-12T01:19:54.338Z,7.20
2023-04-12T01:23:17.885Z,7.10
2023-04-12T01:26:12.523Z,7.00
2023-04-12T01:28:44.814Z,7.10
2023-04-12T01:31:14.359Z,7.10
2023-04-12T01:33:45.419Z,7.10
2023-04-12T01:36:18.308Z,7.00
2023-04-12T01:38:45.888Z,7.00
2023-04-12T01:41:13.352Z,7.00
2023-04-12T01:43:45.655Z,7.00
2023-04-12T01:46:17.081Z,7.00
2023-04-12T01:48:52.893Z,7.00
2023-04-12T01:51:53.020Z,6.90
2023-04-12T01:54:30.647Z,6.90
2023-04-12T01:57:04.449Z,6.90
2023-04-12T01:59:43.990Z,6.80
2023-04-12T02:02:12.481Z,6.80
2023-04-12T02:04:41.971Z,6.70
2023-04-12T02:07:09.750Z,6.70
2023-04-12T02:09:40.527Z,6.70
2023-04-12T02:12:09.199Z,6.70
2023-04-12T02:14:37.045Z,6.80
2023-04-12T02:17:05.782Z,6.70
2023-04-12T02:19:33.114Z,6.60
2023-04-12T02:22:01.186Z,6.60
2023-04-12T02:24:29.297Z,6.60
2023-04-12T02:26:59.558Z,6.70
2023-04-12T02:29:27.184Z,6.60
2023-04-12T02:31:54.459Z,6.60
2023-04-12T02:34:22.785Z,6.60
2023-04-12T02:36:50.419Z,6.60
2023-04-12T02:39:18.997Z,6.60
2023-04-12T02:41:46.314Z,6.60
2023-04-12T02:44:13.724Z,6.60
2023-04-12T02:46:40.839Z,6.60
2023-04-12T02:49:07.893Z,6.80
2023-04-12T02:51:35.423Z,6.80
2023-04-12T02:54:02.751Z,6.80
2023-04-12T02:56:30.006Z,6.80
2023-04-12T02:58:57.139Z,6.70
2023-04-12T03:01:24.268Z,6.80
2023-04-12T03:03:51.429Z,6.80
2023-04-12T03:06:18.608Z,6.70
2023-04-12T03:08:45.671Z,6.80
2023-04-12T03:11:12.746Z,6.80
2023-04-12T03:13:39.851Z,6.70
2023-04-12T03:16:26.022Z,6.70
2023-04-12T03:18:53.274Z,6.70
2023-04-12T03:21:20.719Z,6.70
2023-04-12T03:23:47.804Z,6.80
2023-04-12T03:26:15.038Z,6.90
2023-04-12T03:28:42.972Z,6.90
2023-04-12T03:31:10.811Z,6.90
2023-04-12T03:33:38.274Z,6.90
2023-04-12T03:36:07.438Z,6.80
2023-04-12T03:38:34.749Z,6.80
2023-04-12T03:41:01.907Z,6.70
2023-04-12T03:43:33.621Z,6.60
2023-04-12T03:46:01.043Z,6.60
2023-04-12T03:48:28.230Z,6.60
2023-04-12T03:50:55.332Z,6.70
2023-04-12T03:53:22.459Z,6.80
2023-04-12T03:55:49.590Z,6.70
2023-04-12T03:58:18.928Z,6.60
2023-04-12T04:00:46.805Z,6.60
2023-04-12T04:03:15.242Z,6.70
2023-04-12T04:05:42.822Z,6.70
2023-04-12T04:08:10.198Z,6.70
2023-04-12T04:10:37.533Z,6.70
2023-04-12T04:13:04.756Z,6.60
2023-04-12T04:15:32.780Z,6.60
2023-04-12T04:18:00.013Z,6.60
2023-04-12T04:20:27.931Z,6.60
2023-04-12T04:22:55.144Z,6.60
2023-04-12T04:25:23.352Z,6.60
2023-04-12T04:27:51.158Z,6.60
2023-04-12T04:30:18.907Z,6.60
2023-04-12T04:32:46.346Z,6.60
2023-04-12T04:35:15.716Z,6.60
2023-04-12T04:37:44.801Z,6.70
2023-04-12T04:40:12.455Z,6.60
2023-04-12T04:42:39.841Z,6.60
2023-04-12T04:45:13.874Z,6.60
2023-04-12T04:47:41.246Z,6.60
2023-04-12T04:50:08.875Z,6.60
2023-04-12T04:52:37.799Z,6.60
2023-04-12T04:55:07.932Z,6.60
2023-04-12T04:57:36.640Z,6.60
2023-04-12T05:00:11.680Z,6.50
2023-04-12T05:02:40.255Z,6.50
2023-04-12T05:05:09.468Z,6.50
2023-04-12T05:07:37.231Z,6.50
2023-04-12T05:10:06.264Z,6.50
2023-04-12T05:12:34.174Z,6.60
2023-04-12T05:17:34.943Z,6.70
2023-04-12T05:20:02.185Z,6.70
2023-04-12T05:22:29.699Z,6.60
2023-04-12T05:24:57.399Z,6.70
2023-04-12T05:27:27.840Z,6.70
2023-04-12T05:29:54.942Z,6.70
2023-04-12T05:32:24.885Z,6.70
2023-04-12T05:34:52.730Z,6.70
2023-04-12T05:37:19.822Z,6.70
2023-04-12T05:39:46.897Z,6.70
2023-04-12T05:42:13.968Z,6.80
2023-04-12T05:44:41.598Z,6.90
2023-04-12T05:47:08.656Z,6.90
2023-04-12T05:49:35.785Z,6.90
2023-04-12T05:52:03.560Z,6.90
2023-04-12T05:54:30.797Z,6.90
2023-04-12T05:56:57.961Z,6.90
2023-04-12T05:59:25.058Z,6.90
2023-04-12T06:01:52.376Z,6.90
2023-04-12T06:04:19.770Z,6.90
2023-04-12T06:06:47.574Z,6.90
2023-04-12T06:09:15.635Z,6.90
2023-04-12T06:11:42.772Z,7.00
2023-04-12T06:14:11.758Z,7.10
2023-04-12T06:16:41.294Z,7.10
2023-04-12T06:19:08.984Z,7.20
2023-04-12T06:21:36.187Z,7.20
2023-04-12T06:24:03.450Z,7.20
2023-04-12T06:26:37.412Z,7.20
2023-04-12T06:29:07.067Z,7.20
2023-04-12T06:31:34.286Z,7.30
2023-04-12T06:34:01.414Z,7.30
2023-04-12T06:36:28.550Z,7.20
2023-04-12T06:38:55.871Z,7.30
2023-04-12T06:41:23.146Z,7.30
2023-04-12T06:43:50.241Z,7.30
2023-04-12T06:46:26.052Z,7.30
2023-04-12T06:48:53.317Z,7.30
2023-04-12T06:51:20.485Z,7.30
2023-04-12T06:53:47.596Z,7.30
2023-04-12T06:56:17.168Z,7.30
2023-04-12T06:58:45.990Z,7.30
2023-04-12T07:01:16.128Z,7.40
2023-04-12T07:03:43.346Z,7.30
2023-04-12T07:06:24.405Z,7.30
2023-04-12T07:08:52.778Z,7.30
2023-04-12T07:11:24.190Z,7.40
2023-04-12T07:13:51.816Z,7.50
2023-04-12T07:16:19.217Z,7.60
2023-04-12T07:18:46.511Z,7.60
2023-04-12T07:21:14.651Z,7.60
2023-04-12T07:23:41.822Z,7.60
2023-04-12T07:26:08.973Z,7.60
2023-04-12T07:28:36.423Z,7.50
2023-04-12T07:31:07.563Z,7.50
2023-04-12T07:33:36.192Z,7.50
2023-04-12T07:36:05.054Z,7.60
2023-04-12T07:38:32.215Z,7.70
2023-04-12T07:40:59.291Z,7.80
2023-04-12T07:43:26.487Z,7.80
2023-04-12T07:45:56.457Z,7.90
2023-04-12T07:48:23.821Z,7.90
2023-04-12T07:50:51.952Z,8.00
2023-04-12T07:53:27.998Z,8.00
2023-04-12T07:55:56.218Z,8.10
2023-04-12T07:58:24.930Z,8.10
2023-04-12T08:00:53.790Z,8.10
2023-04-12T08:03:21.180Z,8.10
2023-04-12T08:05:53.502Z,8.20
2023-04-12T08:08:24.539Z,8.20
2023-04-12T08:10:52.670Z,8.20
2023-04-12T08:13:20.342Z,8.20
2023-04-12T08:15:48.119Z,8.20
2023-04-12T08:18:15.851Z,8.20
2023-04-12T08:20:44.362Z,8.20
2023-04-12T08:23:12.171Z,8.20
2023-04-12T08:25:39.705Z,8.20
2023-04-12T08:28:10.022Z,8.30
2023-04-12T08:30:37.288Z,8.30
2023-04-12T08:33:04.959Z,8.30
2023-04-12T08:35:32.792Z,8.30
2023-04-12T08:38:06.891Z,8.30
2023-04-12T08:40:34.244Z,8.40
2023-04-12T08:43:12.448Z,8.40
2023-04-12T08:45:39.664Z,8.50
2023-04-12T08:48:07.158Z,8.60
2023-04-12T08:50:34.760Z,8.50
2023-04-12T08:53:01.942Z,8.60
2023-04-12T08:55:29.210Z,8.60
2023-04-12T08:57:59.183Z,8.70
2023-04-12T09:00:26.745Z,8.70
2023-04-12T09:02:54.287Z,8.80
2023-04-12T09:05:30.079Z,8.70
2023-04-12T09:07:58.318Z,8.70
2023-04-12T09:10:38.251Z,8.70
2023-04-12T09:13:06.628Z,8.70
2023-04-12T09:15:36.775Z,8.70
2023-04-12T09:18:12.323Z,8.70
2023-04-12T09:20:40.410Z,8.80
2023-04-12T09:23:36.273Z,8.90
2023-04-12T09:26:04.338Z,8.90
2023-04-12T09:28:31.751Z,8.90
2023-04-12T09:31:00.649Z,8.90
2023-04-12T09:33:40.487Z,9.00
2023-04-12T09:36:13.604Z,9.00
2023-04-12T09:38:43.115Z,9.10
2023-04-12T09:41:27.251Z,9.10
2023-04-12T09:43:54.720Z,9.20
2023-04-12T09:46:23.150Z,9.30
2023-04-12T09:48:53.638Z,9.30
2023-04-12T09:51:36.367Z,9.30
2023-04-12T09:54:06.569Z,9.40
2023-04-12T09:56:39.987Z,9.40
2023-04-12T09:59:08.171Z,9.40
2023-04-12T10:01:42.417Z,9.50
2023-04-12T10:04:10.493Z,9.50
2023-04-12T10:06:38.042Z,9.50
2023-04-12T10:09:06.917Z,9.50
2023-04-12T10:11:34.695Z,9.50
2023-04-12T10:14:06.181Z,9.50
2023-04-12T10:16:35.242Z,9.60
2023-04-12T10:19:04.292Z,9.60
2023-04-12T10:21:31.988Z,9.50
2023-04-12T10:23:59.743Z,9.50
2023-04-12T10:26:27.840Z,9.40
2023-04-12T10:29:31.166Z,9.50
2023-04-12T10:32:20.598Z,9.50
2023-04-12T10:34:56.586Z,9.50
2023-04-12T10:38:06.082Z,9.50
2023-04-12T10:40:34.347Z,9.60
2023-04-12T10:43:22.614Z,9.60
2023-04-12T10:45:51.102Z,9.70
2023-04-12T10:48:36.230Z,9.80
2023-04-12T10:51:25.408Z,9.80
2023-04-12T10:54:16.333Z,9.80
2023-04-12T10:56:49.633Z,9.90
2023-04-12T10:59:17.094Z,9.90
2023-04-12T11:02:12.236Z,10.00
2023-04-12T11:05:11.347Z,10.00
2023-04-12T11:07:44.476Z,10.00
2023-04-12T11:10:21.887Z,9.90
2023-04-12T11:12:57.562Z,9.90
2023-04-12T11:15:28.917Z,9.90
2023-04-12T11:17:57.908Z,9.90
2023-04-12T11:20:27.855Z,10.00
2023-04-12T11:22:55.430Z,9.90
2023-04-12T11:25:22.870Z,10.00
2023-04-12T11:27:52.083Z,10.10
2023-04-12T11:30:20.241Z,10.10
2023-04-12T11:32:47.845Z,10.10
2023-04-12T11:35:20.422Z,10.10
2023-04-12T11:37:47.891Z,10.10
2023-04-12T11:40:15.124Z,10.20
2023-04-12T11:42:42.450Z,10.20
2023-04-12T11:45:17.898Z,10.30
2023-04-12T11:47:46.244Z,10.40
2023-04-12T11:50:13.682Z,10.50
2023-04-12T11:52:41.363Z,10.50
2023-04-12T11:55:11.264Z,10.50
2023-04-12T11:57:39.747Z,10.50
2023-04-12T12:00:07.696Z,10.60
2023-04-12T12:02:45.897Z,10.70
2023-04-12T12:05:21.285Z,10.70
2023-04-12T12:07:49.002Z,10.80
2023-04-12T12:10:32.530Z,10.90
2023-04-12T12:13:14.146Z,10.90
2023-04-12T12:15:48.085Z,10.90
2023-04-12T12:18:15.254Z,11.00
2023-04-12T12:20:52.867Z,11.00
2023-04-12T12:23:31.605Z,11.00
2023-04-12T12:26:19.057Z,11.00
2023-04-12T12:28:57.314Z,10.90
2023-04-12T12:31:28.539Z,11.00
2023-04-12T12:33:58.354Z,11.00
2023-04-12T12:36:32.845Z,11.10
2023-04-12T12:39:11.138Z,11.20
2023-04-12T12:41:39.996Z,11.20
2023-04-12T12:44:08.310Z,11.20
2023-04-12T12:49:06.438Z,11.40
2023-04-12T12:51:36.615Z,11.50
2023-04-12T12:54:03.768Z,11.60
2023-04-12T12:56:30.823Z,11.60
2023-04-12T12:58:58.071Z,11.60
2023-04-12T13:01:25.219Z,11.50
2023-04-12T13:03:52.469Z,11.40
2023-04-12T13:06:20.039Z,11.20
2023-04-12T13:08:47.074Z,10.90
2023-04-12T13:11:15.828Z,10.70
2023-04-12T13:13:44.284Z,10.50
2023-04-12T13:16:11.625Z,10.50
2023-04-12T13:18:38.764Z,10.50
2023-04-12T13:21:06.395Z,10.50
2023-04-12T13:23:35.505Z,10.50
2023-04-12T13:26:02.602Z,10.40
2023-04-12T13:28:29.757Z,10.50
2023-04-12T13:30:57.409Z,10.50
2023-04-12T13:33:24.562Z,10.60
2023-04-12T13:35:52.015Z,10.70
2023-04-12T13:38:19.185Z,10.70
2023-04-12T13:40:46.243Z,10.60
2023-04-12T13:43:13.464Z,10.60
2023-04-12T13:45:40.773Z,10.70
2023-04-12T13:48:07.925Z,10.70
2023-04-12T13:50:36.457Z,10.80
2023-04-12T13:53:03.612Z,10.80
2023-04-12T13:55:30.913Z,10.80
2023-04-12T13:57:58.037Z,10.80
2023-04-12T14:00:25.216Z,10.70
2023-04-12T14:02:52.459Z,10.70
2023-04-12T14:05:19.783Z,10.70
2023-04-12T14:07:49.839Z,10.60
2023-04-12T14:10:18.028Z,10.60
2023-04-12T14:12:45.167Z,10.60
2023-04-12T14:15:12.238Z,10.60
2023-04-12T14:17:39.485Z,10.60
2023-04-12T14:20:10.593Z,10.70
2023-04-12T14:22:37.661Z,10.80
2023-04-12T14:25:05.877Z,10.80
2023-04-12T14:27:35.662Z,10.90
2023-04-12T14:30:03.410Z,10.90
2023-04-12T14:32:30.582Z,10.90
2023-04-12T14:34:57.890Z,10.80
2023-04-12T14:37:25.151Z,10.80
2023-04-12T14:39:55.134Z,10.80
2023-04-12T14:42:22.297Z,10.80
2023-04-12T14:44:49.473Z,10.80
2023-04-12T14:47:17.021Z,10.80
2023-04-12T14:49:44.144Z,10.90
2023-04-12T14:52:11.247Z,10.90
2023-04-12T14:54:38.420Z,10.90
2023-04-12T14:57:05.571Z,10.90
2023-04-12T14:59:33.400Z,11.00
2023-04-12T15:02:00.914Z,10.90
2023-04-12T15:04:28.294Z,11.00
2023-04-12T15:06:55.721Z,11.00
2023-04-12T15:09:23.337Z,11.00
2023-04-12T15:11:54.969Z,11.00
2023-04-12T15:14:23.487Z,11.00
2023-04-12T15:16:50.603Z,11.00
2023-04-12T15:19:22.839Z,10.90
2023-04-12T15:21:56.808Z,10.70
2023-04-12T15:24:25.156Z,10.60
2023-04-12T15:26:53.304Z,10.50
2023-04-12T15:29:22.683Z,10.50
2023-04-12T15:31:50.548Z,10.40
2023-04-12T15:34:18.046Z,10.50
2023-04-12T15:36:46.198Z,10.50
2023-04-12T15:39:15.146Z,10.50
2023-04-12T15:41:43.562Z,10.50
2023-04-12T15:44:13.501Z,10.40
2023-04-12T15:46:41.838Z,10.40
2023-04-12T15:49:10.394Z,10.30
2023-04-12T15:51:38.393Z,10.20
2023-04-12T15:54:06.367Z,10.20
2023-04-12T15:56:35.208Z,10.20
2023-04-12T15:59:02.485Z,10.20
2023-04-12T16:01:31.691Z,10.30
2023-04-12T16:03:59.100Z,10.40
2023-04-12T16:06:26.479Z,10.50
2023-04-12T16:08:54.834Z,10.80
2023-04-12T16:11:26.830Z,11.20
2023-04-12T16:13:55.018Z,11.80
2023-04-12T16:16:23.466Z,12.10
2023-04-12T16:18:51.660Z,12.30
2023-04-12T16:21:21.226Z,12.30
2023-04-12T16:23:50.339Z,12.10
2023-04-12T16:26:23.344Z,11.80
2023-04-12T16:28:53.561Z,11.60
2023-04-12T16:31:25.464Z,11.50
2023-04-12T16:33:52.987Z,11.70
2023-04-12T16:36:23.670Z,11.90
2023-04-12T16:38:55.228Z,12.00
2023-04-12T16:41:23.217Z,12.00
2023-04-12T16:43:53.680Z,12.30
2023-04-12T16:46:21.705Z,12.60
2023-04-12T16:48:48.894Z,13.00
2023-04-12T16:51:16.077Z,12.90
2023-04-12T16:53:43.283Z,12.90
2023-04-12T16:56:10.865Z,13.00
2023-04-12T16:58:37.898Z,13.00
2023-04-12T17:01:05.404Z,13.00
2023-04-12T17:03:32.741Z,13.10
2023-04-12T17:06:00.062Z,13.10
2023-04-12T17:08:27.235Z,13.20
2023-04-12T17:10:54.733Z,13.00
2023-04-12T17:13:21.784Z,12.80
2023-04-12T17:15:49.115Z,12.40
2023-04-12T17:18:16.329Z,12.10
2023-04-12T17:20:44.125Z,11.70
2023-04-12T17:23:11.776Z,11.40
2023-04-12T17:25:39.302Z,11.20
2023-04-12T17:28:08.631Z,11.00
2023-04-12T17:30:36.223Z,10.80
2023-04-12T17:33:03.559Z,10.70
2023-04-12T17:35:31.231Z,10.70
2023-04-12T17:37:58.336Z,10.70
2023-04-12T17:40:26.369Z,10.60
2023-04-12T17:42:53.630Z,10.40
2023-04-12T17:45:22.047Z,10.30
2023-04-12T17:47:49.439Z,10.20
2023-04-12T17:50:16.913Z,10.10
2023-04-12T17:52:44.348Z,10.00
2023-04-12T17:55:12.939Z,9.90
2023-04-12T17:57:40.475Z,9.90
2023-04-12T18:00:11.933Z,9.80
2023-04-12T18:02:40.229Z,9.80
2023-04-12T18:05:10.330Z,9.90
2023-04-12T18:07:39.860Z,9.80
2023-04-12T18:10:09.674Z,9.80
2023-04-12T18:12:38.749Z,9.70
2023-04-12T18:15:08.497Z,9.60
2023-04-12T18:17:38.443Z,9.50
2023-04-12T18:20:11.213Z,9.40
2023-04-12T18:22:39.183Z,9.30
2023-04-12T18:25:09.117Z,9.20
2023-04-12T18:27:36.605Z,9.10
2023-04-12T18:30:05.323Z,9.10
2023-04-12T18:32:32.549Z,9.00
2023-04-12T18:34:59.680Z,9.00
2023-04-12T18:37:27.557Z,8.90
2023-04-12T18:39:55.531Z,8.80
2023-04-12T18:42:22.756Z,8.70
2023-04-12T18:44:52.190Z,8.50
2023-04-12T18:47:19.710Z,8.30
2023-04-12T18:49:46.848Z,8.20
2023-04-12T18:52:14.007Z,8.10
2023-04-12T18:54:41.854Z,8.10
2023-04-12T18:57:09.128Z,8.00
2023-04-12T18:59:36.383Z,8.00
2023-04-12T19:02:03.623Z,8.00
2023-04-12T19:04:30.782Z,8.10
2023-04-12T19:06:57.970Z,8.30
2023-04-12T19:09:25.043Z,8.40
2023-04-12T19:11:55.539Z,8.50
2023-04-12T19:14:22.804Z,8.50
2023-04-12T19:16:49.929Z,8.60
2023-04-12T19:19:17.193Z,8.70
2023-04-12T19:21:44.459Z,8.90
2023-04-12T19:24:11.639Z,9.00
2023-04-12T19:26:41.858Z,9.10
2023-04-12T19:29:08.955Z,9.30
2023-04-12T19:31:36.109Z,8.60
2023-04-12T19:34:05.763Z,8.00
2023-04-12T19:36:33.426Z,7.50
2023-04-12T19:39:01.708Z,7.20
2023-04-12T19:41:28.860Z,7.00
2023-04-12T19:43:57.143Z,6.80
2023-04-12T19:46:24.756Z,6.70
2023-04-12T19:48:52.759Z,6.50
2023-04-12T19:51:19.918Z,6.40
2023-04-12T19:53:50.168Z,6.40
2023-04-12T19:56:17.505Z,6.30
2023-04-12T19:58:45.469Z,6.20
2023-04-12T20:01:13.833Z,6.10
2023-04-12T20:03:43.794Z,6.00
2023-04-12T20:06:11.142Z,6.00
2023-04-12T20:08:39.314Z,5.90
2023-04-12T20:11:06.616Z,5.80
2023-04-12T20:13:34.324Z,5.70
2023-04-12T20:16:01.547Z,5.70
2023-04-12T20:18:30.409Z,5.60
2023-04-12T20:21:00.275Z,5.60
2023-04-12T20:23:28.170Z,5.50
2023-04-12T20:25:55.745Z,5.50
2023-04-12T20:28:23.448Z,5.50
2023-04-12T20:30:51.070Z,5.40
2023-04-12T20:33:19.969Z,5.40
2023-04-12T20:35:47.165Z,5.40
2023-04-12T20:38:15.196Z,5.40
2023-04-12T20:40:42.294Z,5.40
2023-04-12T20:43:10.524Z,5.40
2023-04-12T20:45:38.146Z,5.40
2023-04-12T20:48:05.826Z,5.30
2023-04-12T20:50:33.125Z,5.30
2023-04-12T20:53:00.157Z,5.30
2023-04-12T20:55:32.957Z,5.20
2023-04-12T20:58:03.968Z,5.20
2023-04-12T21:00:32.769Z,5.20
2023-04-12T21:03:02.789Z,5.30
2023-04-12T21:05:33.691Z,5.30
2023-04-12T21:08:03.415Z,5.40
2023-04-12T21:10:30.587Z,5.50
2023-04-12T21:12:58.401Z,5.50
2023-04-12T21:15:25.528Z,5.50
2023-04-12T21:17:52.623Z,5.50
2023-04-12T21:20:20.229Z,5.60
2023-04-12T21:22:53.639Z,5.60
2023-04-12T21:25:21.386Z,5.60
2023-04-12T21:27:49.850Z,5.70
2023-04-12T21:30:17.468Z,5.60
2023-04-12T21:32:45.121Z,5.60
2023-04-12T21:35:16.473Z,5.70
2023-04-12T21:37:43.683Z,5.70
2023-04-12T21:40:12.675Z,5.70
2023-04-12T21:42:41.396Z,5.70
2023-04-12T21:45:13.764Z,5.60
2023-04-12T21:47:42.680Z,5.60
2023-04-12T21:50:11.329Z,5.60
2023-04-12T21:52:40.507Z,5.60
2023-04-12T21:55:08.157Z,5.60
2023-04-12T21:57:36.086Z,5.60
2023-04-12T22:00:05.774Z,5.60
2023-04-12T22:02:33.065Z,5.60
2023-04-12T22:05:00.256Z,5.50
2023-04-12T22:07:27.948Z,5.50
2023-04-12T22:09:55.103Z,5.50
2023-04-12T22:12:25.523Z,5.50
2023-04-12T22:14:52.871Z,5.50
2023-04-12T22:17:21.632Z,5.40
2023-04-12T22:19:49.062Z,5.50
2023-04-12T22:22:19.386Z,5.50
2023-04-12T22:24:46.770Z,5.50
2023-04-12T22:27:14.887Z,5.50
2023-04-12T22:29:42.833Z,5.50
2023-04-12T22:32:09.925Z,5.60
2023-04-12T22:34:37.279Z,5.70
2023-04-12T22:37:05.487Z,5.80
2023-04-12T22:39:32.831Z,5.80
2023-04-12T22:42:00.141Z,5.80
2023-04-12T22:44:29.284Z,5.70
2023-04-12T22:46:56.849Z,5.70
2023-04-12T22:49:28.489Z,5.70
2023-04-12T22:51:56.019Z,5.80
2023-04-12T22:54:24.777Z,5.90
2023-04-12T22:56:52.085Z,6.00
2023-04-12T22:59:22.424Z,6.00
2023-04-12T23:01:50.312Z,6.00
2023-04-12T23:04:17.638Z,6.00
2023-04-12T23:06:45.083Z,5.90
2023-04-12T23:09:12.837Z,5.90
2023-04-12T23:11:41.806Z,5.80
2023-04-12T23:14:10.222Z,5.70
2023-04-12T23:16:44.369Z,5.60
2023-04-12T23:19:14.998Z,5.70
2023-04-12T23:21:45.564Z,5.60
2023-04-12T23:24:15.558Z,5.50
2023-04-12T23:26:45.175Z,5.40
2023-04-12T23:29:12.733Z,5.40
2023-04-12T23:31:42.031Z,5.40
2023-04-12T23:34:09.179Z,5.40
2023-04-12T23:36:36.492Z,5.50
2023-04-12T23:39:08.613Z,5.70
2023-04-12T23:41:35.704Z,5.70
2023-04-12T23:44:02.917Z,5.80
2023-04-12T23:46:30.169Z,5.90
2023-04-12T23:48:57.334Z,5.90
2023-04-12T23:51:24.425Z,5.90
2023-04-12T23:53:51.788Z,5.90
2023-04-12T23:56:18.908Z,5.80
2023-04-12T23:58:47.184Z,5.70
